Terminal Aerodrome Forecast
Issued by NWS

Home | Current Version | Previous Version | Text Only | Print | Product List | Glossary On
Versions: 1 2 3 4 5 6 7 8 9 10 11 12 13 14 15 16 17 18
911
FTUS41 KBGM 061737 AAB
TAFELM
TAF AMD
KELM 061737Z 0618/0718 13008KT P6SM SCT050 OVC100
     FM062200 14005KT P6SM -RA OVC050
     FM062300 14008KT 5SM -RA BR OVC025
      TEMPO 0700/0704 2SM -RASN BR OVC008
     FM070800 19005KT 5SM -DZ BR OVC008
     FM071200 23005KT P6SM OVC015
     FM071400 25008KT P6SM SCT025 BKN045=

USA.gov is the U.S. government's official web portal to all federal, state and local government web resources and services.